Time;durP1;ratioP1;P1;durP2;ratioP2;P2;SDS_P1;SDS_P2;PMS_P1;PMS_P2;Temp;Humidity;BMP_temperature;BMP_pressure;BME280_temperature;BME280_humidity;BME280_pressure;Samples;Min_cycle;Max_cycle;Signal;HPM_P1;HPM_P2
2023/04/07 00:02:01;;;;;;;12.35;8.48;;;;;;;16.20;33.56;93292.94;5000185;28;20049;-90
2023/04/07 00:04:26;;;;;;;11.65;7.35;;;;;;;16.25;33.53;93286.72;4995848;28;20042;-91
2023/04/07 00:06:53;;;;;;;13.50;8.18;;;;;;;16.24;33.58;93283.25;5013979;28;20033;-90
2023/04/07 00:09:18;;;;;;;13.63;7.65;;;;;;;16.25;33.91;93276.56;5015657;28;20064;-91
2023/04/07 00:11:44;;;;;;;13.68;7.57;;;;;;;16.20;33.57;93280.06;5019774;28;20400;-90
2023/04/07 00:14:09;;;;;;;10.65;7.72;;;;;;;16.20;33.55;93279.31;5002423;28;20056;-88
2023/04/07 00:16:35;;;;;;;11.27;7.80;;;;;;;16.21;33.77;93278.06;4985123;28;20126;-89
2023/04/07 00:19:03;;;;;;;14.55;8.35;;;;;;;16.21;33.27;93273.38;5015207;28;20081;-88
2023/04/07 00:21:29;;;;;;;13.63;7.80;;;;;;;16.20;33.46;93274.59;4969558;28;20062;-88
2023/04/07 00:23:55;;;;;;;10.85;7.78;;;;;;;16.17;33.77;93272.13;5000110;28;20129;-89
2023/04/07 00:26:21;;;;;;;10.90;7.68;;;;;;;16.19;33.75;93278.56;4991447;28;20046;-92
2023/04/07 00:28:47;;;;;;;10.45;7.50;;;;;;;16.21;34.08;93272.63;4946242;28;20120;-91
2023/04/07 00:31:13;;;;;;;15.25;7.65;;;;;;;16.23;33.89;93272.88;4975210;28;20038;-89
2023/04/07 00:33:38;;;;;;;10.90;7.38;;;;;;;16.19;33.83;93278.56;4964195;28;20466;-89
2023/04/07 00:36:04;;;;;;;11.05;7.30;;;;;;;16.18;33.64;93268.91;4978290;28;20046;-91
2023/04/07 00:38:30;;;;;;;11.15;7.55;;;;;;;16.23;33.66;93275.59;4960721;28;20042;-89
2023/04/07 00:40:58;;;;;;;10.43;7.35;;;;;;;16.22;33.42;93269.41;4958852;28;20042;-90
2023/04/07 00:43:25;;;;;;;11.95;7.97;;;;;;;16.20;33.69;93265.69;4975192;28;20045;-90
2023/04/07 00:45:51;;;;;;;10.98;6.90;;;;;;;16.21;33.93;93265.19;4974380;28;20045;-89
2023/04/07 00:48:17;;;;;;;9.85;7.47;;;;;;;16.22;33.93;93260.47;4957500;28;20045;-89
2023/04/07 00:50:44;;;;;;;9.73;7.35;;;;;;;16.22;33.61;93255.00;4981770;28;20033;-90
2023/04/07 00:53:10;;;;;;;12.02;7.32;;;;;;;16.22;33.75;93257.75;4983066;28;20042;-89
2023/04/07 00:55:37;;;;;;;11.48;6.80;;;;;;;16.21;34.06;93248.06;4990287;28;20080;-89
2023/04/07 00:58:04;;;;;;;9.73;7.18;;;;;;;16.19;33.76;93254.03;4998411;28;20026;-91
2023/04/07 01:00:49;;;;;;;8.10;6.63;;;;;;;16.22;33.63;93247.56;5013199;28;20043;-90
2023/04/07 01:03:21;;;;;;;10.20;7.30;;;;;;;16.19;33.95;93247.84;4995451;28;20034;-90
2023/04/07 01:05:56;;;;;;;9.25;6.70;;;;;;;16.20;33.83;93250.06;4998509;28;20059;-91
2023/04/07 01:08:34;;;;;;;11.23;7.30;;;;;;;16.21;33.67;93243.38;5013826;28;20038;-90
2023/04/07 01:11:05;;;;;;;10.88;6.78;;;;;;;16.21;33.87;93243.38;4982321;28;20507;-90
2023/04/07 01:13:35;;;;;;;10.73;6.45;;;;;;;16.23;34.12;93242.88;4990881;28;20052;-91
2023/04/07 01:16:04;;;;;;;8.07;6.47;;;;;;;16.20;34.00;93244.59;4980056;28;20046;-90
2023/04/07 01:18:33;;;;;;;9.88;6.68;;;;;;;16.20;33.73;93239.16;4979671;28;20046;-88
2023/04/07 01:21:01;;;;;;;9.35;7.07;;;;;;;16.19;33.90;93240.38;4982041;28;20042;-89
2023/04/07 01:23:58;;;;;;;12.65;7.22;;;;;;;16.17;34.18;93240.16;4979895;28;20060;-90
2023/04/07 01:26:30;;;;;;;8.07;6.32;;;;;;;16.16;33.96;93243.38;5031863;28;20048;-90
2023/04/07 01:29:11;;;;;;;10.43;6.40;;;;;;;16.20;33.87;93233.69;5004756;28;20603;-88
2023/04/07 01:31:39;;;;;;;10.75;7.28;;;;;;;16.20;33.73;93235.69;5025231;28;20037;-91
2023/04/07 01:34:05;;;;;;;10.20;6.50;;;;;;;16.16;34.10;93235.94;5001057;28;20042;-91
2023/04/07 01:36:34;;;;;;;9.23;6.82;;;;;;;16.19;33.85;93231.47;4985997;28;20065;-91
2023/04/07 01:38:59;;;;;;;11.07;6.60;;;;;;;16.20;34.07;93239.16;4985690;28;20072;-89
2023/04/07 01:41:26;;;;;;;9.85;6.78;;;;;;;16.20;34.07;93239.16;4978275;28;20034;-89
2023/04/07 01:43:53;;;;;;;10.23;6.60;;;;;;;16.21;33.82;93240.63;5001606;28;20049;-91
2023/04/07 01:46:19;;;;;;;10.13;7.38;;;;;;;16.17;34.10;93233.94;4978719;28;20038;-90
2023/04/07 01:48:48;;;;;;;10.75;7.07;;;;;;;16.18;33.62;93222.53;4967949;28;20038;-91
2023/04/07 01:51:17;;;;;;;9.63;6.07;;;;;;;16.18;33.98;93235.44;4987311;28;20045;-92
2023/04/07 01:53:44;;;;;;;13.27;7.32;;;;;;;16.13;33.79;93239.66;4983296;28;20048;-90
2023/04/07 01:56:10;;;;;;;9.75;5.82;;;;;;;16.13;33.86;93238.91;4963522;28;20060;-91
2023/04/07 01:58:36;;;;;;;9.00;6.40;;;;;;;16.09;33.94;93230.97;4985032;28;20042;-91
2023/04/07 02:01:01;;;;;;;10.32;6.75;;;;;;;16.15;34.16;93236.44;4985998;28;20694;-95
2023/04/07 02:03:29;;;;;;;10.05;6.07;;;;;;;16.17;34.12;93229.25;4970750;28;20050;-89
2023/04/07 02:05:57;;;;;;;10.32;7.00;;;;;;;16.16;33.73;93227.00;4986123;28;20069;-92
2023/04/07 02:08:23;;;;;;;10.35;6.00;;;;;;;16.15;34.32;93223.53;4967767;28;20041;-92
2023/04/07 02:10:48;;;;;;;12.05;6.93;;;;;;;16.15;34.21;93220.81;4969346;28;20490;-93
2023/04/07 02:13:17;;;;;;;11.60;6.60;;;;;;;16.15;33.99;93220.06;4987825;28;20072;-92
2023/04/07 02:15:45;;;;;;;8.63;6.47;;;;;;;16.13;34.34;93215.13;4984176;28;20046;-92
2023/04/07 02:18:12;;;;;;;8.57;5.88;;;;;;;16.12;34.13;93213.63;4965946;28;20043;-92
2023/04/07 02:20:37;;;;;;;8.10;5.70;;;;;;;16.15;34.08;93211.88;4996433;28;20042;-90
2023/04/07 02:23:03;;;;;;;8.73;5.95;;;;;;;16.14;33.96;93215.84;5003467;28;20045;-92
2023/04/07 02:25:31;;;;;;;10.65;6.15;;;;;;;16.14;34.30;93218.59;5019498;28;20148;-91
2023/04/07 02:27:58;;;;;;;8.10;6.28;;;;;;;16.14;34.51;93222.06;5016002;28;20037;-89
2023/04/07 02:30:26;;;;;;;7.70;5.70;;;;;;;16.11;33.93;93218.34;5005442;28;20108;-91
2023/04/07 02:32:57;;;;;;;10.70;6.40;;;;;;;16.11;34.04;93203.97;5006390;28;20046;-89
2023/04/07 02:35:23;;;;;;;7.82;5.88;;;;;;;16.12;34.23;93219.09;4996753;28;20079;-92
2023/04/07 02:37:48;;;;;;;10.32;6.00;;;;;;;16.09;34.59;93215.38;5020906;28;20057;-92
2023/04/07 02:40:14;;;;;;;8.85;6.28;;;;;;;16.12;34.25;93208.19;5010306;28;20399;-90
2023/04/07 02:42:40;;;;;;;7.90;5.68;;;;;;;16.11;34.52;93201.22;4983155;28;20519;-90
2023/04/07 02:45:07;;;;;;;8.15;6.68;;;;;;;16.11;34.35;93203.97;5006933;28;20089;-91
2023/04/07 02:47:34;;;;;;;8.38;6.22;;;;;;;16.09;34.34;93201.72;4999470;28;20042;-90
2023/04/07 02:50:06;;;;;;;8.40;5.72;;;;;;;16.14;34.04;93205.69;5014482;28;20042;-90
2023/04/07 02:52:34;;;;;;;10.13;6.00;;;;;;;16.15;34.18;93195.53;5014461;28;20043;-92
2023/04/07 02:55:00;;;;;;;8.50;5.55;;;;;;;16.08;34.28;93191.31;5014718;28;20037;-92
2023/04/07 02:57:25;;;;;;;13.30;6.18;;;;;;;16.09;34.31;93195.53;5000722;28;20452;-92
2023/04/07 02:59:51;;;;;;;7.82;5.80;;;;;;;16.11;34.18;93196.53;4986884;28;20038;-92
2023/04/07 03:02:16;;;;;;;9.52;5.65;;;;;;;16.09;34.44;93190.81;4985297;28;20113;-92
2023/04/07 03:04:44;;;;;;;6.35;5.63;;;;;;;16.09;34.33;93196.28;4987187;28;20049;-92
2023/04/07 03:07:11;;;;;;;8.20;6.05;;;;;;;16.12;34.36;93183.63;4986720;28;20044;-94
2023/04/07 03:09:36;;;;;;;7.32;5.18;;;;;;;16.25;34.34;93183.81;4988822;28;20040;-91
2023/04/07 03:12:02;;;;;;;8.65;5.57;;;;;;;16.13;34.46;93182.38;5020744;28;20057;-91
2023/04/07 03:14:29;;;;;;;7.75;5.22;;;;;;;16.13;34.36;93185.13;5019810;28;20096;-92
2023/04/07 03:16:55;;;;;;;7.75;5.70;;;;;;;16.10;34.14;93183.38;4985561;28;20038;-92
2023/04/07 03:19:21;;;;;;;12.13;5.72;;;;;;;16.14;34.19;93191.31;4985766;28;20046;-90
2023/04/07 03:21:47;;;;;;;7.30;5.43;;;;;;;16.13;34.66;93187.09;4984945;28;20065;-91
2023/04/07 03:24:13;;;;;;;7.47;5.63;;;;;;;16.13;34.18;93184.38;4985069;28;20039;-90
2023/04/07 03:26:39;;;;;;;9.93;5.70;;;;;;;16.14;34.24;93183.88;4993433;28;20033;-91
2023/04/07 03:29:06;;;;;;;8.82;5.82;;;;;;;16.17;34.61;93180.16;5020828;28;20052;-91
2023/04/07 03:31:32;;;;;;;9.35;5.20;;;;;;;16.16;34.17;93183.38;5030757;28;20098;-91
2023/04/07 03:33:57;;;;;;;8.57;5.20;;;;;;;16.11;34.28;93182.16;5004810;28;20042;-93
2023/04/07 03:36:23;;;;;;;6.75;5.60;;;;;;;16.08;34.34;93183.88;5020734;28;20049;-91
2023/04/07 03:38:49;;;;;;;7.68;5.47;;;;;;;16.08;34.05;93178.44;5020444;28;20317;-92
2023/04/07 03:41:16;;;;;;;9.02;5.68;;;;;;;16.11;34.33;93179.41;5005462;28;20061;-91
2023/04/07 03:43:41;;;;;;;7.95;5.32;;;;;;;16.12;34.36;93183.63;5004907;28;20053;-92
2023/04/07 03:46:08;;;;;;;6.97;5.20;;;;;;;16.11;34.41;93168.50;4997575;28;20045;-93
2023/04/07 03:48:33;;;;;;;8.85;5.90;;;;;;;16.14;34.35;93181.16;5002005;28;20487;-92
2023/04/07 03:51:00;;;;;;;7.25;5.03;;;;;;;16.12;34.23;93172.72;4996764;28;20067;-92
2023/04/07 03:53:26;;;;;;;8.65;5.80;;;;;;;16.07;34.53;93174.22;5021210;28;20076;-91
2023/04/07 03:55:51;;;;;;;7.75;5.60;;;;;;;16.10;34.19;93180.66;5018337;28;20050;-90
2023/04/07 03:58:17;;;;;;;9.77;5.95;;;;;;;16.11;34.30;93166.53;5001184;28;20067;-90
2023/04/07 04:00:43;;;;;;;8.73;6.18;;;;;;;16.13;34.36;93168.00;5010381;28;20064;-91
2023/04/07 04:03:08;;;;;;;7.65;5.40;;;;;;;16.11;34.47;93166.53;5018495;28;20246;-91
2023/04/07 04:05:37;;;;;;;7.20;5.80;;;;;;;16.15;34.63;93170.97;5021769;28;20037;-93
2023/04/07 04:08:02;;;;;;;9.20;6.22;;;;;;;16.16;34.67;93170.47;4990265;28;20034;-92
2023/04/07 04:10:28;;;;;;;8.32;5.97;;;;;;;16.15;34.38;93165.53;4998828;28;20034;-92
2023/04/07 04:12:53;;;;;;;9.95;6.03;;;;;;;16.14;34.59;93159.34;5004233;28;20041;-91
2023/04/07 04:15:19;;;;;;;7.47;5.38;;;;;;;16.13;34.46;93163.31;4997568;28;20041;-90
2023/04/07 04:17:45;;;;;;;11.65;6.00;;;;;;;16.09;34.42;93168.28;4982569;28;20041;-91
2023/04/07 04:20:11;;;;;;;6.75;5.40;;;;;;;16.13;34.56;93171.47;5013406;28;20101;-93
2023/04/07 04:22:37;;;;;;;15.85;7.55;;;;;;;16.24;34.14;93157.78;4991575;28;20072;-92
2023/04/07 04:25:03;;;;;;;9.18;6.55;;;;;;;16.16;34.69;93167.75;5014898;28;20484;-88
2023/04/07 04:27:30;;;;;;;15.32;8.70;;;;;;;16.30;34.70;93165.97;4982001;28;20041;-91
2023/04/07 04:29:57;;;;;;;14.45;9.55;;;;;;;16.29;34.82;93164.47;5015147;28;20124;-91
2023/04/07 04:32:22;;;;;;;13.50;9.10;;;;;;;16.33;34.55;93154.78;4981298;28;20523;-89
2023/04/07 04:34:48;;;;;;;17.27;9.05;;;;;;;16.25;34.68;93159.28;4982053;28;20348;-91
2023/04/07 04:37:13;;;;;;;10.50;7.50;;;;;;;16.24;34.20;93163.25;4973408;28;20042;-91
2023/04/07 04:39:39;;;;;;;12.57;8.82;;;;;;;16.32;34.62;93158.00;4981802;28;20038;-92
2023/04/07 04:42:04;;;;;;;7.57;5.57;;;;;;;16.24;34.62;93157.06;5000058;28;20045;-91
2023/04/07 04:44:31;;;;;;;10.93;7.85;;;;;;;16.28;34.32;93154.81;5006727;28;20037;-91
2023/04/07 04:46:56;;;;;;;8.20;5.75;;;;;;;16.15;34.55;93157.34;4996403;28;20045;-92
2023/04/07 04:49:22;;;;;;;6.85;4.82;;;;;;;16.15;34.76;93160.06;5017886;28;20444;-91
2023/04/07 04:51:47;;;;;;;6.40;5.32;;;;;;;16.17;34.48;93154.88;4974326;28;20562;-92
2023/04/07 04:54:13;;;;;;;6.65;5.07;;;;;;;16.13;34.60;93157.09;4973545;28;20088;-91
2023/04/07 04:56:39;;;;;;;8.43;5.40;;;;;;;16.18;34.51;93159.06;4975068;28;20445;-92
2023/04/07 04:59:05;;;;;;;9.70;6.88;;;;;;;16.29;34.63;93154.31;4976211;28;20484;-91
2023/04/07 05:01:30;;;;;;;7.60;4.95;;;;;;;16.20;34.52;93157.34;4974438;28;20065;-90
2023/04/07 05:03:56;;;;;;;7.20;5.03;;;;;;;16.18;34.88;93157.09;4979253;28;20046;-92
2023/04/07 05:06:21;;;;;;;7.78;4.30;;;;;;;16.22;34.60;93162.28;4994612;28;20507;-92
2023/04/07 05:08:47;;;;;;;5.82;4.38;;;;;;;16.22;34.14;93154.84;5005243;28;20038;-91
2023/04/07 05:11:12;;;;;;;7.07;5.03;;;;;;;16.23;34.35;93159.06;4995718;28;20069;-93
2023/04/07 05:13:38;;;;;;;9.43;6.20;;;;;;;16.31;34.77;93157.28;4985488;28;20038;-89
2023/04/07 05:16:04;;;;;;;6.63;4.70;;;;;;;16.23;34.56;93152.88;4981253;28;20076;-91
2023/04/07 05:18:29;;;;;;;5.22;3.97;;;;;;;16.21;34.54;93155.34;4980444;28;20041;-92
2023/04/07 05:20:55;;;;;;;7.95;5.00;;;;;;;16.17;34.38;93155.59;4988552;28;20411;-93
2023/04/07 05:23:21;;;;;;;10.10;5.22;;;;;;;16.20;34.66;93149.16;5032087;28;20064;-92
2023/04/07 05:25:46;;;;;;;7.88;4.57;;;;;;;16.18;34.40;93143.47;5007094;28;20050;-93
2023/04/07 05:28:12;;;;;;;7.45;4.45;;;;;;;16.22;34.39;93148.66;4985863;28;20030;-93
2023/04/07 05:30:40;;;;;;;7.05;4.82;;;;;;;16.30;34.62;93146.88;4991623;28;20030;-92
2023/04/07 05:33:06;;;;;;;7.65;4.85;;;;;;;16.31;34.55;93148.34;5006825;28;20399;-93
2023/04/07 05:35:33;;;;;;;7.40;4.18;;;;;;;16.24;34.38;93149.59;4986448;28;20080;-94
2023/04/07 05:37:58;;;;;;;4.70;3.13;;;;;;;16.22;34.46;93140.47;4984060;28;20046;-93
2023/04/07 05:40:24;;;;;;;4.85;3.67;;;;;;;16.22;34.47;93146.66;5025298;28;20050;-91
2023/04/07 05:42:49;;;;;;;6.00;4.03;;;;;;;16.19;34.57;93153.13;5009150;28;20118;-92
2023/04/07 05:45:29;;;;;;;6.80;3.65;;;;;;;16.23;34.58;93152.88;4997843;28;20042;-93
2023/04/07 05:47:55;;;;;;;5.20;3.72;;;;;;;16.21;34.53;93147.91;4996213;28;20469;-93
2023/04/07 05:50:20;;;;;;;4.90;3.63;;;;;;;16.21;34.83;93153.38;4979848;28;20129;-92
2023/04/07 05:52:50;;;;;;;6.25;3.97;;;;;;;16.22;34.58;93149.41;4986300;28;20518;-91
2023/04/07 05:55:16;;;;;;;5.13;4.30;;;;;;;16.36;34.52;93148.31;4984405;28;20046;-92
2023/04/07 05:57:42;;;;;;;7.88;4.90;;;;;;;16.30;34.75;93155.03;4981300;28;20041;-93
2023/04/07 06:00:09;;;;;;;6.45;4.63;;;;;;;16.34;34.72;93153.53;5013927;28;20125;-92
2023/04/07 06:02:35;;;;;;;7.10;4.72;;;;;;;16.32;34.58;93147.84;5017102;28;20042;-92
2023/04/07 06:05:00;;;;;;;6.60;4.32;;;;;;;16.16;34.04;93150.66;5032688;28;20403;-92
2023/04/07 06:07:27;;;;;;;9.65;5.68;;;;;;;15.92;31.59;93151.22;5000419;28;20042;-94
2023/04/07 06:09:53;;;;;;;15.63;7.28;;;;;;;15.74;30.93;93155.25;4981815;28;20038;-93
2023/04/07 06:12:19;;;;;;;14.98;6.88;;;;;;;15.61;30.56;93155.75;4995341;28;20041;-93
2023/04/07 06:14:51;;;;;;;16.17;7.03;;;;;;;15.54;30.48;93145.38;5036099;28;20331;-93
2023/04/07 06:17:16;;;;;;;26.52;8.52;;;;;;;15.72;30.83;93150.31;5018727;28;20052;-94
2023/04/07 06:19:42;;;;;;;17.67;7.93;;;;;;;15.80;31.65;93147.81;5010036;28;20063;-93
2023/04/07 06:22:07;;;;;;;16.60;7.53;;;;;;;15.90;31.29;93145.53;5016330;28;20136;-93
2023/04/07 06:24:33;;;;;;;21.02;7.88;;;;;;;15.96;31.49;93154.44;5017914;28;20041;-92
2023/04/07 06:27:00;;;;;;;14.80;7.25;;;;;;;15.94;31.80;93151.47;5005414;28;20042;-94
2023/04/07 06:29:25;;;;;;;14.80;7.50;;;;;;;16.01;32.19;93148.25;4980958;28;20049;-94
2023/04/07 06:31:52;;;;;;;16.77;7.60;;;;;;;16.07;32.68;93148.94;4991919;28;20117;-93
2023/04/07 06:34:17;;;;;;;13.40;6.93;;;;;;;15.98;32.95;93146.50;5016418;28;20057;-92
2023/04/07 06:36:43;;;;;;;17.70;6.32;;;;;;;16.12;33.94;93150.91;5007449;28;20084;-94
2023/04/07 06:39:08;;;;;;;10.95;6.00;;;;;;;16.13;33.87;93151.66;4979527;28;20042;-93
2023/04/07 06:41:34;;;;;;;9.35;6.75;;;;;;;16.15;33.97;93147.19;5004476;28;20037;-93
2023/04/07 06:43:59;;;;;;;12.70;7.07;;;;;;;16.17;33.92;93149.41;5017349;28;20530;-93
2023/04/07 06:46:25;;;;;;;12.68;7.43;;;;;;;16.19;34.13;93155.09;5010136;28;20057;-92
2023/04/07 06:48:51;;;;;;;13.55;7.68;;;;;;;16.20;33.90;93146.44;4980469;28;20140;-93
2023/04/07 06:51:16;;;;;;;11.38;6.60;;;;;;;16.23;33.96;93155.59;5013155;28;20034;-92
2023/04/07 06:53:43;;;;;;;12.15;5.93;;;;;;;16.23;34.34;93152.88;5013012;28;20099;-91
2023/04/07 06:56:10;;;;;;;11.30;7.22;;;;;;;16.20;33.87;93145.69;5000578;28;20034;-92
2023/04/07 06:58:36;;;;;;;12.45;6.43;;;;;;;16.24;33.82;93140.72;4978728;28;20487;-92
2023/04/07 07:01:02;;;;;;;14.75;7.25;;;;;;;16.30;34.25;93144.88;4976140;28;20310;-91
2023/04/07 07:03:28;;;;;;;13.20;6.00;;;;;;;16.33;33.65;93143.13;4977404;28;20038;-91
2023/04/07 07:05:55;;;;;;;8.02;5.88;;;;;;;16.30;34.09;93146.88;4977777;28;20034;-91
2023/04/07 07:08:23;;;;;;;8.98;6.10;;;;;;;16.33;33.87;93154.03;4978580;28;20046;-92
2023/04/07 07:10:49;;;;;;;11.45;5.70;;;;;;;16.17;31.58;93163.78;4977300;28;20073;-90
2023/04/07 07:13:14;;;;;;;10.55;6.13;;;;;;;16.13;31.27;93154.38;4995893;28;20545;-94
2023/04/07 07:15:40;;;;;;;11.25;6.10;;;;;;;15.97;30.18;93159.41;5012408;28;20073;-91
2023/04/07 07:18:05;;;;;;;12.02;6.40;;;;;;;16.01;30.48;93154.44;4985910;28;20123;-92
2023/04/07 07:20:31;;;;;;;30.40;8.05;;;;;;;15.94;29.27;93154.19;4957720;28;20042;-92
2023/04/07 07:22:57;;;;;;;27.25;7.20;;;;;;;15.84;28.66;93158.44;4954653;28;20109;-91
2023/04/07 07:25:23;;;;;;;25.63;8.25;;;;;;;15.83;28.50;93156.94;4973890;28;20049;-92
2023/04/07 07:27:52;;;;;;;21.98;7.22;;;;;;;15.88;28.46;93154.22;4995201;28;20045;-91
2023/04/07 07:30:19;;;;;;;31.10;8.88;;;;;;;16.02;29.31;93161.34;4972747;28;20050;-91
2023/04/07 07:32:44;;;;;;;20.15;9.15;;;;;;;16.11;29.07;93158.34;4969803;28;20133;-91
2023/04/07 07:35:10;;;;;;;25.33;9.40;;;;;;;16.18;29.70;93156.34;4974770;28;20061;-90
2023/04/07 07:37:35;;;;;;;21.52;10.13;;;;;;;16.18;29.44;93159.81;4972549;28;20089;-92
2023/04/07 07:40:01;;;;;;;21.27;10.25;;;;;;;16.21;30.15;93156.09;4971856;28;20174;-92
2023/04/07 07:42:26;;;;;;;17.52;9.77;;;;;;;16.23;29.82;93156.34;4993447;28;20041;-91
2023/04/07 07:44:51;;;;;;;20.20;9.48;;;;;;;16.25;30.70;93162.00;4993939;28;20053;-91
2023/04/07 07:47:18;;;;;;;14.85;8.93;;;;;;;16.32;31.54;93166.19;4988444;28;20068;-90
2023/04/07 07:49:43;;;;;;;17.65;8.15;;;;;;;16.32;31.41;93164.22;5021150;28;20380;-92
2023/04/07 07:52:10;;;;;;;10.85;7.25;;;;;;;16.35;32.07;93157.75;4993007;28;20050;-92
2023/04/07 07:54:35;;;;;;;14.25;6.72;;;;;;;16.31;31.80;93160.00;4977193;28;20107;-93
2023/04/07 07:57:01;;;;;;;14.68;7.45;;;;;;;16.42;32.74;93161.94;4973609;28;20496;-92
2023/04/07 07:59:28;;;;;;;12.80;6.25;;;;;;;16.40;32.35;93169.88;5004698;28;20064;-92
2023/04/07 08:01:53;;;;;;;12.00;5.95;;;;;;;16.32;32.53;93164.22;5012397;28;20034;-92
2023/04/07 08:04:22;;;;;;;13.52;6.18;;;;;;;16.40;32.86;93162.44;5028030;28;20033;-92
2023/04/07 08:06:47;;;;;;;13.43;6.40;;;;;;;16.48;32.84;93161.91;5023542;28;20335;-91
2023/04/07 08:09:13;;;;;;;13.23;5.97;;;;;;;16.44;33.07;93162.94;4976178;28;20034;-92
2023/04/07 08:11:39;;;;;;;11.57;7.20;;;;;;;16.50;33.21;93154.69;4992084;28;20026;-92
2023/04/07 08:14:06;;;;;;;14.05;6.18;;;;;;;16.43;32.71;93163.44;4976271;28;20125;-93
2023/04/07 08:16:31;;;;;;;9.65;5.90;;;;;;;16.44;33.06;93159.47;4976240;28;20053;-92
2023/04/07 08:18:56;;;;;;;13.82;6.70;;;;;;;16.44;33.48;93167.66;4977090;28;20334;-92
2023/04/07 08:21:22;;;;;;;8.80;6.03;;;;;;;16.49;32.99;93169.59;5026266;28;20061;-92
2023/04/07 08:23:47;;;;;;;9.90;5.47;;;;;;;16.41;32.47;93169.38;5025103;28;20526;-92
2023/04/07 08:26:13;;;;;;;14.82;6.72;;;;;;;16.51;33.05;93164.38;4971240;28;20026;-92
2023/04/07 08:28:38;;;;;;;8.68;5.80;;;;;;;16.52;32.88;93168.56;4975427;28;20400;-92
2023/04/07 08:31:04;;;;;;;9.10;5.82;;;;;;;16.51;32.66;93166.34;4975551;28;20376;-92
2023/04/07 08:33:29;;;;;;;14.30;6.97;;;;;;;16.40;30.21;93165.19;4975465;28;20514;-92
2023/04/07 08:35:55;;;;;;;15.65;8.68;;;;;;;16.37;29.79;93158.00;4973595;28;20126;-92
2023/04/07 08:38:21;;;;;;;16.27;8.15;;;;;;;16.45;29.85;93156.19;5008591;28;20100;-93
2023/04/07 08:40:48;;;;;;;14.90;7.82;;;;;;;16.40;29.86;93165.19;5014912;28;20053;-92
2023/04/07 08:43:13;;;;;;;13.35;8.15;;;;;;;16.32;30.16;93158.75;5014900;28;20045;-91
2023/04/07 08:45:40;;;;;;;12.23;7.55;;;;;;;16.22;29.30;93154.84;5031765;28;20041;-92
2023/04/07 08:48:12;;;;;;;15.25;8.90;;;;;;;16.14;29.25;93162.06;5001896;28;20598;-93
2023/04/07 08:50:37;;;;;;;20.50;10.40;;;;;;;16.22;29.41;93152.13;4992225;28;20042;-92
2023/04/07 08:53:03;;;;;;;19.33;11.45;;;;;;;16.14;28.86;93159.34;4994989;28;20034;-92
2023/04/07 08:55:28;;;;;;;23.52;11.75;;;;;;;16.22;29.21;93148.66;4978845;28;20045;-92
2023/04/07 08:57:55;;;;;;;35.25;12.05;;;;;;;16.27;29.31;93142.41;4994304;28;20050;-92
2023/04/07 09:00:20;;;;;;;34.08;12.77;;;;;;;16.27;28.94;93153.31;4994722;28;20041;-92
2023/04/07 09:02:47;;;;;;;27.80;11.23;;;;;;;16.31;29.42;93142.88;4985541;28;20038;-93
2023/04/07 09:05:13;;;;;;;41.47;11.38;;;;;;;16.30;29.67;93147.59;4992480;28;20043;-92
2023/04/07 09:07:42;;;;;;;24.77;10.88;;;;;;;16.37;30.45;93141.63;4997893;28;20360;-93
2023/04/07 09:10:08;;;;;;;35.65;14.25;;;;;;;16.41;30.63;93141.38;4976970;28;20038;-93
2023/04/07 09:12:34;;;;;;;19.30;11.88;;;;;;;16.36;30.63;93145.59;4995843;28;20045;-93
2023/04/07 09:14:59;;;;;;;18.33;10.13;;;;;;;16.35;30.54;93132.47;4976630;28;20046;-93
2023/04/07 09:17:28;;;;;;;19.40;11.38;;;;;;;16.43;31.40;93139.63;4995590;28;20162;-94
2023/04/07 09:19:57;;;;;;;15.60;8.73;;;;;;;16.42;31.30;93138.13;4976931;28;20043;-92
2023/04/07 09:22:42;;;;;;;14.45;8.63;;;;;;;16.42;31.39;93137.41;5006731;28;20098;-92
2023/04/07 09:25:18;;;;;;;15.20;8.02;;;;;;;16.44;31.73;93130.19;5001437;28;20046;-93
2023/04/07 09:28:04;;;;;;;15.13;7.95;;;;;;;16.46;31.24;93138.59;5012291;28;20034;-94
2023/04/07 09:30:32;;;;;;;12.23;7.40;;;;;;;16.42;31.35;93135.41;4975778;28;20038;-94
2023/04/07 09:32:59;;;;;;;16.45;7.82;;;;;;;16.50;31.94;93143.78;4969597;28;20488;-93
2023/04/07 09:35:26;;;;;;;11.68;7.25;;;;;;;16.42;31.18;93138.13;5002804;28;20541;-93
2023/04/07 09:38:05;;;;;;;11.43;7.40;;;;;;;16.48;31.19;93131.88;5011408;28;20054;-94
2023/04/07 09:40:31;;;;;;;14.98;8.35;;;;;;;16.51;31.70;93125.41;4994612;28;20523;-94
2023/04/07 09:42:57;;;;;;;19.95;9.30;;;;;;;16.51;31.46;93131.63;5005874;28;20060;-94
2023/04/07 09:45:27;;;;;;;16.27;7.20;;;;;;;16.53;31.31;93123.69;4998407;28;20514;-93
2023/04/07 09:47:53;;;;;;;15.52;8.32;;;;;;;16.54;32.12;93125.16;5031179;28;20046;-93
2023/04/07 09:50:37;;;;;;;9.35;7.38;;;;;;;16.53;31.41;93126.41;5014138;28;20042;-93
2023/04/07 09:53:03;;;;;;;13.73;7.85;;;;;;;16.58;31.48;93113.97;5011711;28;20053;-93
2023/04/07 09:55:30;;;;;;;10.57;7.72;;;;;;;16.59;31.64;93124.38;4982876;28;20052;-93
2023/04/07 09:57:55;;;;;;;12.60;7.20;;;;;;;16.57;31.72;93112.50;4995507;28;20065;-94
2023/04/07 10:00:21;;;;;;;10.43;7.28;;;;;;;16.57;31.22;93120.69;4978038;28;20440;-94
2023/04/07 10:02:47;;;;;;;11.43;6.93;;;;;;;16.57;31.42;93112.50;4975827;28;20053;-93
2023/04/07 10:05:12;;;;;;;11.05;7.63;;;;;;;16.54;31.06;93116.97;5007366;28;20038;-93
2023/04/07 10:07:37;;;;;;;11.82;6.68;;;;;;;16.51;31.14;93115.25;5007226;28;20046;-94
2023/04/07 10:10:03;;;;;;;10.57;6.75;;;;;;;16.50;31.32;93110.28;5006927;28;20809;-94
2023/04/07 10:12:30;;;;;;;11.15;6.65;;;;;;;16.53;30.91;93112.03;5014003;28;20098;-93
2023/04/07 10:14:57;;;;;;;11.27;6.35;;;;;;;16.48;30.96;93116.25;4999185;28;20193;-93
2023/04/07 10:17:22;;;;;;;11.45;7.15;;;;;;;16.51;31.39;93112.53;4980450;28;20050;-94
2023/04/07 10:19:48;;;;;;;11.48;6.90;;;;;;;16.54;31.83;93108.03;5030682;28;20037;-94
2023/04/07 10:22:13;;;;;;;11.98;7.50;;;;;;;16.54;30.99;93111.50;5012745;28;20044;-93
2023/04/07 10:24:59;;;;;;;9.82;6.93;;;;;;;16.56;31.79;93109.03;5000871;28;20057;-94
2023/04/07 10:27:31;;;;;;;13.05;7.10;;;;;;;16.51;31.37;93107.06;4976879;28;20363;-93
2023/04/07 10:29:57;;;;;;;11.93;7.63;;;;;;;16.56;31.27;93111.00;4980652;28;20729;-94
2023/04/07 10:32:22;;;;;;;9.57;6.30;;;;;;;16.56;31.55;93109.03;5005055;28;20118;-93
2023/04/07 10:34:53;;;;;;;12.85;8.00;;;;;;;16.59;31.52;93105.28;4978313;28;20100;-93
2023/04/07 10:37:22;;;;;;;10.48;6.53;;;;;;;16.57;31.97;93102.31;5028254;28;20068;-94
2023/04/07 10:39:49;;;;;;;12.00;6.35;;;;;;;16.48;31.34;93101.88;4979142;28;20045;-93
2023/04/07 10:42:36;;;;;;;12.40;6.10;;;;;;;16.46;31.15;93103.13;4977781;28;20407;-94
2023/04/07 10:45:03;;;;;;;12.25;5.75;;;;;;;16.44;31.21;93102.16;5018744;28;20452;-94
2023/04/07 10:47:28;;;;;;;8.63;6.25;;;;;;;16.49;31.65;93106.09;5013627;28;20068;-94
2023/04/07 10:50:17;;;;;;;14.48;8.68;;;;;;;16.56;31.59;93097.38;5013950;28;20407;-93
2023/04/07 10:52:44;;;;;;;9.32;6.47;;;;;;;16.55;31.77;93096.63;5026859;28;20129;-93
2023/04/07 10:55:30;;;;;;;8.88;6.57;;;;;;;16.48;31.54;93097.16;4988737;28;20325;-94
2023/04/07 10:58:17;;;;;;;12.85;8.55;;;;;;;16.56;31.96;93089.94;4994408;28;20546;-94
2023/04/07 11:01:04;;;;;;;14.25;7.72;;;;;;;16.56;31.79;93089.94;5009133;28;20065;-93
2023/04/07 11:03:32;;;;;;;18.25;7.72;;;;;;;16.58;32.21;93089.41;4990239;28;20045;-94
2023/04/07 11:06:10;;;;;;;10.35;5.75;;;;;;;16.51;31.78;93085.25;4971643;28;20058;-92
2023/04/07 11:08:46;;;;;;;14.70;7.38;;;;;;;16.50;32.12;93077.56;4974029;28;20049;-94
2023/04/07 11:11:15;;;;;;;9.95;6.68;;;;;;;16.51;32.04;93079.78;4958712;28;20046;-94
2023/04/07 11:13:45;;;;;;;11.43;6.88;;;;;;;16.53;32.08;93082.75;4995139;28;20068;-94
2023/04/07 11:16:11;;;;;;;13.52;7.47;;;;;;;16.46;32.05;93081.28;5012505;28;20242;-94
2023/04/07 11:18:36;;;;;;;13.45;8.18;;;;;;;16.49;31.87;93071.34;4994653;28;20064;-92
2023/04/07 11:21:02;;;;;;;10.85;9.70;;;;;;;16.54;32.23;93075.31;5010398;28;20483;-93
2023/04/07 11:23:28;;;;;;;21.08;11.70;;;;;;;16.49;32.02;93065.16;5000803;28;20293;-93
2023/04/07 11:26:03;;;;;;;19.55;13.73;;;;;;;16.52;31.76;93064.91;4965670;28;20042;-94
2023/04/07 11:28:29;;;;;;;25.98;21.35;;;;;;;16.55;32.28;93063.16;4977239;28;20092;-93